Time;durP1;ratioP1;P1;durP2;ratioP2;P2;SDS_P1;SDS_P2;PMS_P1;PMS_P2;Temp;Humidity;BMP_temperature;BMP_pressure;BME280_temperature;BME280_humidity;BME280_pressure;Samples;Min_cycle;Max_cycle;Signal;HPM_P1;HPM_P2
2023/04/11 00:01:50;;;;;;;;;;;;;;;7.78;81.62;94972.56;4957002;29;979;-52
2023/04/11 00:04:16;;;;;;;;;;;;;;;8.04;79.93;94971.84;4956414;29;1985;-52
2023/04/11 00:06:42;;;;;;;;;;;;;;;8.12;79.14;94970.13;4956886;29;988;-52
2023/04/11 00:09:10;;;;;;;;;;;;;;;8.06;79.51;94967.19;4948672;29;1219;-51
2023/04/11 00:11:36;;;;;;;;;;;;;;;8.21;77.24;94969.22;4937710;29;1070;-51
2023/04/11 00:14:04;;;;;;;;;;;;;;;8.21;77.71;94969.22;4937205;29;1211;-51
2023/04/11 00:16:32;;;;;;;;;;;;;;;8.09;78.65;94962.41;4937247;29;1044;-51
2023/04/11 00:18:59;;;;;;;;;;;;;;;8.20;78.27;94969.38;4937259;29;1071;-52
2023/04/11 00:21:25;;;;;;;;;;;;;;;8.10;79.93;94963.25;4937265;29;1036;-52
2023/04/11 00:23:51;;;;;;;;;;;;;;;7.91;81.05;94965.06;4937365;29;1911;-51
2023/04/11 00:26:17;;;;;;;;;;;;;;;7.72;81.46;94959.84;4937140;29;1058;-52
2023/04/11 00:28:43;;;;;;;;;;;;;;;7.72;82.02;94955.38;4937312;29;1062;-52
2023/04/11 00:31:11;;;;;;;;;;;;;;;7.57;82.51;94956.81;4937055;29;1115;-51
2023/04/11 00:33:37;;;;;;;;;;;;;;;7.62;82.02;94954.56;4937153;29;1052;-51
2023/04/11 00:36:03;;;;;;;;;;;;;;;7.54;82.87;94949.97;4936941;29;1036;-51
2023/04/11 00:38:30;;;;;;;;;;;;;;;7.60;82.56;94952.03;4937146;29;1177;-51
2023/04/11 00:40:55;;;;;;;;;;;;;;;7.47;83.49;94948.06;4937167;29;1056;-51
2023/04/11 00:43:21;;;;;;;;;;;;;;;7.49;83.58;94938.94;4936550;29;1907;-52
2023/04/11 00:45:47;;;;;;;;;;;;;;;7.68;80.93;94940.66;4937006;29;1042;-52
2023/04/11 00:48:14;;;;;;;;;;;;;;;7.93;79.62;94940.94;4936826;29;1130;-52
2023/04/11 00:50:41;;;;;;;;;;;;;;;8.05;79.14;94941.59;4936741;29;1095;-51
2023/04/11 00:53:08;;;;;;;;;;;;;;;8.08;78.78;94943.91;4936668;29;1907;-51
2023/04/11 00:55:34;;;;;;;;;;;;;;;8.20;78.39;94942.72;4936891;29;1043;-52
2023/04/11 00:58:00;;;;;;;;;;;;;;;8.25;78.37;94945.75;4936717;29;1035;-52
2023/04/11 01:00:27;;;;;;;;;;;;;;;8.35;77.91;94938.53;4936766;29;1028;-52
2023/04/11 01:02:53;;;;;;;;;;;;;;;8.44;77.39;94942.13;4919646;29;1043;-52
2023/04/11 01:05:19;;;;;;;;;;;;;;;8.48;76.38;94935.53;4936266;29;1906;-51
2023/04/11 01:07:47;;;;;;;;;;;;;;;8.65;76.11;94940.97;4936763;29;966;-52
2023/04/11 01:10:13;;;;;;;;;;;;;;;8.64;75.56;94941.97;4952936;29;1220;-51
2023/04/11 01:12:40;;;;;;;;;;;;;;;8.67;74.91;94936.31;4955419;29;1093;-52
2023/04/11 01:15:06;;;;;;;;;;;;;;;8.64;74.49;94934.00;4955822;29;1059;-52
2023/04/11 01:17:32;;;;;;;;;;;;;;;8.66;74.03;94932.84;4955612;29;1011;-52
2023/04/11 01:19:59;;;;;;;;;;;;;;;8.63;74.42;94934.97;4955555;29;1035;-52
2023/04/11 01:22:26;;;;;;;;;;;;;;;8.66;74.59;94924.84;4955281;29;1086;-52
2023/04/11 01:24:52;;;;;;;;;;;;;;;8.62;74.44;94933.31;4955339;29;1906;-52
2023/04/11 01:27:18;;;;;;;;;;;;;;;8.61;75.13;94927.13;4955111;29;1320;-51
2023/04/11 01:29:44;;;;;;;;;;;;;;;8.63;74.46;94930.47;4955515;29;1046;-52
2023/04/11 01:32:10;;;;;;;;;;;;;;;8.53;74.59;94927.88;4955497;29;1043;-52
2023/04/11 01:34:38;;;;;;;;;;;;;;;8.38;76.63;94934.72;4955173;29;1027;-51
2023/04/11 01:37:04;;;;;;;;;;;;;;;8.14;76.92;94928.19;4955224;29;1031;-52
2023/04/11 01:39:30;;;;;;;;;;;;;;;8.10;77.41;94931.28;4955199;29;1024;-52
2023/04/11 01:41:57;;;;;;;;;;;;;;;7.95;78.67;94925.69;4955081;29;1023;-51
2023/04/11 01:44:24;;;;;;;;;;;;;;;7.88;78.92;94930.75;4954996;29;1902;-52
2023/04/11 01:46:50;;;;;;;;;;;;;;;7.95;79.11;94931.84;4955328;29;1011;-52
2023/04/11 01:49:17;;;;;;;;;;;;;;;7.84;79.89;94917.91;4955154;29;1058;-52
2023/04/11 01:51:43;;;;;;;;;;;;;;;7.85;80.07;94922.22;4955009;29;1023;-52
2023/04/11 01:54:09;;;;;;;;;;;;;;;7.85;80.32;94914.25;4955064;29;1007;-52
2023/04/11 01:56:35;;;;;;;;;;;;;;;7.70;81.21;94911.25;4954930;29;976;-52
2023/04/11 01:59:01;;;;;;;;;;;;;;;7.68;81.73;94910.56;4955224;29;998;-52
2023/04/11 02:01:27;;;;;;;;;;;;;;;7.75;81.38;94914.31;4954888;29;1031;-52
2023/04/11 02:03:53;;;;;;;;;;;;;;;7.84;80.58;94908.09;4943267;29;1918;-53
2023/04/11 02:06:19;;;;;;;;;;;;;;;7.95;80.13;94915.84;4935722;29;1028;-52
2023/04/11 02:08:45;;;;;;;;;;;;;;;8.00;79.55;94916.22;4940812;29;1191;-52
2023/04/11 02:11:11;;;;;;;;;;;;;;;8.07;79.80;94918.31;4954957;29;1101;-52
2023/04/11 02:13:37;;;;;;;;;;;;;;;8.19;78.58;94919.75;4954877;29;1239;-52
2023/04/11 02:16:08;;;;;;;;;;;;;;;8.24;78.31;94925.44;4955150;28;1281;-52
2023/04/11 02:18:35;;;;;;;;;;;;;;;8.27;78.21;94917.16;4958232;29;973;-52
2023/04/11 02:21:01;;;;;;;;;;;;;;;8.23;78.29;94918.44;4958654;29;2021;-52
2023/04/11 02:23:27;;;;;;;;;;;;;;;8.17;78.88;94911.06;4958835;29;1906;-52
2023/04/11 02:25:53;;;;;;;;;;;;;;;8.16;78.29;94912.91;4958569;29;1027;-52
2023/04/11 02:28:19;;;;;;;;;;;;;;;8.20;77.45;94913.44;4958394;29;1031;-52
2023/04/11 02:30:45;;;;;;;;;;;;;;;8.08;78.47;94912.84;4958493;29;1027;-51
2023/04/11 02:33:11;;;;;;;;;;;;;;;8.04;78.33;94910.59;4958569;29;1038;-52
2023/04/11 02:35:37;;;;;;;;;;;;;;;8.07;77.79;94912.97;4958428;29;1035;-52
2023/04/11 02:38:03;;;;;;;;;;;;;;;8.07;77.42;94912.97;4958548;29;1059;-52
2023/04/11 02:40:29;;;;;;;;;;;;;;;8.05;77.38;94909.63;4958437;29;1346;-49
2023/04/11 02:42:55;;;;;;;;;;;;;;;8.01;77.83;94917.91;4958427;29;1217;-49
2023/04/11 02:45:21;;;;;;;;;;;;;;;8.04;77.30;94915.94;4958225;29;1910;-48
2023/04/11 02:47:47;;;;;;;;;;;;;;;8.13;77.02;94909.69;4958434;29;1039;-49
2023/04/11 02:50:13;;;;;;;;;;;;;;;8.08;77.27;94904.84;4958341;29;1054;-49
2023/04/11 02:52:41;;;;;;;;;;;;;;;8.11;77.33;94901.03;4958070;29;2195;-49
2023/04/11 02:55:07;;;;;;;;;;;;;;;8.16;77.38;94902.25;4957999;29;913;-49
2023/04/11 02:57:33;;;;;;;;;;;;;;;8.11;77.25;94903.69;4958013;29;1022;-50
2023/04/11 02:59:59;;;;;;;;;;;;;;;8.18;76.37;94902.09;4958125;29;1057;-50
2023/04/11 03:02:28;;;;;;;;;;;;;;;8.16;76.43;94899.59;4957800;29;1098;-50
2023/04/11 03:04:54;;;;;;;;;;;;;;;8.27;76.05;94892.34;4957599;29;1986;-50
2023/04/11 03:07:20;;;;;;;;;;;;;;;8.31;75.52;94891.91;4957694;29;991;-50
2023/04/11 03:09:46;;;;;;;;;;;;;;;8.27;75.42;94895.84;4944372;29;1192;-49
2023/04/11 03:12:12;;;;;;;;;;;;;;;8.31;75.34;94894.56;4938342;29;1094;-50
2023/04/11 03:14:38;;;;;;;;;;;;;;;8.30;74.47;94898.19;4938660;29;1054;-50
2023/04/11 03:17:04;;;;;;;;;;;;;;;8.35;74.10;94898.59;4938594;29;1082;-50
2023/04/11 03:19:31;;;;;;;;;;;;;;;8.39;73.97;94896.44;4938596;29;1023;-50
2023/04/11 03:21:57;;;;;;;;;;;;;;;8.45;73.28;94895.84;4938382;29;1046;-50
2023/04/11 03:24:23;;;;;;;;;;;;;;;8.46;72.47;94896.69;4938117;29;1991;-50
2023/04/11 03:26:49;;;;;;;;;;;;;;;8.47;72.49;94903.72;4938435;29;1034;-49
2023/04/11 03:29:15;;;;;;;;;;;;;;;8.40;72.42;94903.44;4936957;29;1295;-49
2023/04/11 03:31:41;;;;;;;;;;;;;;;8.43;73.00;94897.00;4938192;29;2047;-49
2023/04/11 03:34:07;;;;;;;;;;;;;;;8.46;72.72;94896.69;4938225;29;1070;-50
2023/04/11 03:36:33;;;;;;;;;;;;;;;8.43;72.37;94905.00;4937937;29;1047;-49
2023/04/11 03:38:59;;;;;;;;;;;;;;;8.39;71.57;94909.78;4938042;29;1035;-50
2023/04/11 03:41:25;;;;;;;;;;;;;;;8.36;72.56;94908.22;4938049;29;975;-50
2023/04/11 03:43:51;;;;;;;;;;;;;;;8.48;71.23;94908.03;4938052;29;2020;-50
2023/04/11 03:46:17;;;;;;;;;;;;;;;8.56;70.84;94900.13;4937852;29;1099;-50
2023/04/11 03:48:44;;;;;;;;;;;;;;;8.64;70.59;94894.84;4921354;29;1030;-50
2023/04/11 03:51:10;;;;;;;;;;;;;;;8.58;70.94;94898.13;4937854;29;1025;-50
2023/04/11 03:53:36;;;;;;;;;;;;;;;8.62;70.28;94896.81;4937761;29;1114;-50
2023/04/11 03:56:03;;;;;;;;;;;;;;;8.61;70.48;94895.13;4937739;29;1035;-50
2023/04/11 03:58:29;;;;;;;;;;;;;;;8.59;70.40;94897.97;4937920;29;972;-50
2023/04/11 04:00:55;;;;;;;;;;;;;;;8.68;70.20;94895.38;4937753;29;1098;-50
2023/04/11 04:03:21;;;;;;;;;;;;;;;8.59;70.48;94899.78;4937518;29;2003;-50
2023/04/11 04:05:47;;;;;;;;;;;;;;;8.69;70.34;94895.22;4937471;29;1231;-49
2023/04/11 04:08:13;;;;;;;;;;;;;;;8.72;70.53;94897.56;4938265;29;1161;-50
2023/04/11 04:10:39;;;;;;;;;;;;;;;8.79;70.45;94892.44;4956834;29;1039;-50
2023/04/11 04:13:05;;;;;;;;;;;;;;;8.81;70.26;94901.13;4956922;29;1039;-50
2023/04/11 04:15:31;;;;;;;;;;;;;;;8.79;71.04;94893.28;4956570;29;936;-49
2023/04/11 04:17:57;;;;;;;;;;;;;;;8.82;71.92;94894.81;4956676;29;1047;-50
2023/04/11 04:20:23;;;;;;;;;;;;;;;8.74;72.51;94890.22;4956717;29;1080;-50
2023/04/11 04:22:52;;;;;;;;;;;;;;;8.75;72.51;94902.59;4956342;29;1106;-49
2023/04/11 04:25:18;;;;;;;;;;;;;;;8.77;71.93;94889.94;4956456;29;1906;-50
2023/04/11 04:27:45;;;;;;;;;;;;;;;8.74;71.91;94884.06;4956672;29;1051;-49
2023/04/11 04:30:14;;;;;;;;;;;;;;;8.81;71.85;94887.78;4956416;29;1072;-49
2023/04/11 04:32:42;;;;;;;;;;;;;;;8.78;71.66;94888.09;4956252;29;1984;-49
2023/04/11 04:35:09;;;;;;;;;;;;;;;8.75;72.09;94899.91;4956247;29;1002;-50
2023/04/11 04:37:38;;;;;;;;;;;;;;;8.81;71.46;94892.28;4956015;29;1655;-49
2023/04/11 04:40:07;;;;;;;;;;;;;;;8.86;71.77;94893.50;4955784;28;1031;-49
2023/04/11 04:42:35;;;;;;;;;;;;;;;8.79;71.93;94893.28;4956305;29;984;-50
2023/04/11 04:45:01;;;;;;;;;;;;;;;8.78;71.90;94896.09;4956464;29;1984;-50
2023/04/11 04:47:31;;;;;;;;;;;;;;;8.79;71.72;94893.28;4955968;29;1094;-49
2023/04/11 04:49:58;;;;;;;;;;;;;;;8.81;71.90;94900.28;4940118;29;1320;-49
2023/04/11 04:52:24;;;;;;;;;;;;;;;8.78;71.67;94902.28;4936950;29;1100;-49
2023/04/11 04:54:51;;;;;;;;;;;;;;;8.77;71.75;94895.25;4936935;29;987;-49
2023/04/11 04:57:17;;;;;;;;;;;;;;;8.73;71.29;94903.75;4936545;29;1871;-49
2023/04/11 04:59:43;;;;;;;;;;;;;;;8.78;71.18;94899.63;4919911;29;941;-49
2023/04/11 05:02:09;;;;;;;;;;;;;;;8.94;70.45;94892.72;4936423;29;1095;-49
2023/04/11 05:04:36;;;;;;;;;;;;;;;8.95;70.09;94897.03;4936420;29;1903;-49
2023/04/11 05:07:02;;;;;;;;;;;;;;;8.89;70.10;94893.16;4936510;29;1073;-49
2023/04/11 05:09:28;;;;;;;;;;;;;;;8.93;69.22;94896.34;4936175;29;1237;-49
2023/04/11 05:11:55;;;;;;;;;;;;;;;8.88;70.53;94898.66;4936447;29;1041;-49
2023/04/11 05:14:21;;;;;;;;;;;;;;;8.80;70.52;94899.44;4936425;29;1114;-49
2023/04/11 05:16:47;;;;;;;;;;;;;;;8.81;71.00;94901.13;4936615;29;995;-49
2023/04/11 05:19:13;;;;;;;;;;;;;;;8.83;70.72;94893.81;4936224;29;963;-49
2023/04/11 05:21:39;;;;;;;;;;;;;;;8.82;70.24;94893.94;4935976;29;1337;-49
2023/04/11 05:24:05;;;;;;;;;;;;;;;9.02;69.52;94902.59;4936296;29;1891;-49
2023/04/11 05:26:31;;;;;;;;;;;;;;;9.23;68.30;94903.03;4936300;29;1062;-49
2023/04/11 05:28:57;;;;;;;;;;;;;;;9.19;68.60;94899.84;4936308;29;1039;-49
2023/04/11 05:31:24;;;;;;;;;;;;;;;9.24;69.55;94907.38;4936171;29;1169;-49
2023/04/11 05:44:27;;;;;;;;;;;;;;;9.59;68.04;94900.19;5110997;27;1675;-57
2023/04/11 05:46:53;;;;;;;;;;;;;;;9.56;67.86;94895.16;5110871;28;973;-57
2023/04/11 05:49:19;;;;;;;;;;;;;;;9.47;68.30;94891.66;5110237;28;1105;-57
2023/04/11 05:51:45;;;;;;;;;;;;;;;9.40;67.46;94884.44;5110775;28;1913;-57
2023/04/11 05:54:12;;;;;;;;;;;;;;;9.49;67.88;94886.97;5110615;28;1020;-57
2023/04/11 05:56:41;;;;;;;;;;;;;;;9.55;67.52;94882.84;5110812;28;960;-57
2023/04/11 05:59:07;;;;;;;;;;;;;;;9.84;68.04;94877.06;5095437;28;1044;-57
2023/04/11 06:01:33;;;;;;;;;;;;;;;9.95;67.90;94874.09;5090481;28;1025;-57
2023/04/11 06:03:59;;;;;;;;;;;;;;;9.95;65.45;94878.59;5090093;28;1052;-57
2023/04/11 06:06:26;;;;;;;;;;;;;;;9.91;65.63;94882.59;5091626;28;1268;-57
2023/04/11 06:08:52;;;;;;;;;;;;;;;9.89;65.53;94871.25;5097768;28;992;-56
2023/04/11 06:11:19;;;;;;;;;;;;;;;10.10;65.68;94868.13;5089920;28;1056;-57
2023/04/11 06:13:45;;;;;;;;;;;;;;;10.08;63.37;94875.47;5090245;28;1910;-57
2023/04/11 06:16:11;;;;;;;;;;;;;;;10.24;64.21;94866.63;5089886;28;1100;-57
2023/04/11 06:18:37;;;;;;;;;;;;;;;10.52;64.22;94870.66;5089532;28;1261;-57
2023/04/11 06:21:03;;;;;;;;;;;;;;;10.66;62.30;94866.50;5089666;28;1040;-57
2023/04/11 06:23:30;;;;;;;;;;;;;;;10.83;62.17;94851.28;5090052;28;1043;-57
2023/04/11 06:25:56;;;;;;;;;;;;;;;10.74;61.80;94852.28;5090075;28;1063;-56
2023/04/11 06:28:22;;;;;;;;;;;;;;;10.87;62.07;94849.06;5089655;28;1103;-56
2023/04/11 06:30:48;;;;;;;;;;;;;;;11.08;61.58;94853.88;5089642;28;1040;-56
2023/04/11 06:33:14;;;;;;;;;;;;;;;10.70;60.68;94850.97;5089692;28;1910;-56
2023/04/11 06:35:40;;;;;;;;;;;;;;;10.71;62.39;94847.25;5089773;28;1032;-56
2023/04/11 06:38:06;;;;;;;;;;;;;;;11.03;61.33;94848.22;5089867;28;1368;-55
2023/04/11 06:40:32;;;;;;;;;;;;;;;11.17;62.34;94847.47;5091146;28;1538;-56
2023/04/11 06:42:59;;;;;;;;;;;;;;;11.44;61.65;94848.91;5110076;28;1103;-56
2023/04/11 06:45:25;;;;;;;;;;;;;;;11.67;58.22;94845.47;5096475;28;1119;-55
2023/04/11 06:47:51;;;;;;;;;;;;;;;11.58;59.47;94838.47;5093353;28;1122;-56
2023/04/11 06:50:18;;;;;;;;;;;;;;;11.68;60.43;94847.13;5076064;28;1110;-55
2023/04/11 06:52:44;;;;;;;;;;;;;;;11.78;57.58;94849.56;5076198;28;1917;-56
2023/04/11 06:55:13;;;;;;;;;;;;;;;11.99;57.59;94851.66;5075881;28;1061;-56
2023/04/11 06:57:39;;;;;;;;;;;;;;;12.22;55.34;94849.84;5075925;28;1086;-56
2023/04/11 07:00:06;;;;;;;;;;;;;;;12.31;55.10;94845.22;5075888;28;1112;-56
2023/04/11 07:02:34;;;;;;;;;;;;;;;12.41;55.36;94847.69;5074478;28;1104;-56
2023/04/11 07:05:00;;;;;;;;;;;;;;;12.28;54.55;94851.78;5075947;28;1189;-56
2023/04/11 07:07:26;;;;;;;;;;;;;;;12.27;55.00;94849.28;5075717;28;1027;-56
2023/04/11 07:09:52;;;;;;;;;;;;;;;12.21;54.62;94844.66;5075541;28;1075;-56
2023/04/11 07:12:18;;;;;;;;;;;;;;;12.16;55.52;94850.56;5075774;28;1906;-56
2023/04/11 07:14:44;;;;;;;;;;;;;;;12.32;53.74;94854.97;5075588;28;977;-56
2023/04/11 07:17:10;;;;;;;;;;;;;;;12.73;52.97;94856.47;5075664;28;1028;-57
2023/04/11 07:19:36;;;;;;;;;;;;;;;12.65;53.16;94854.69;5075475;28;1218;-57
2023/04/11 07:22:03;;;;;;;;;;;;;;;12.74;52.93;94855.47;5075590;28;1009;-57
2023/04/11 07:24:29;;;;;;;;;;;;;;;13.25;52.26;94858.28;5075503;28;965;-57
2023/04/11 07:26:57;;;;;;;;;;;;;;;13.56;50.23;94860.81;5075531;28;1056;-56
2023/04/11 07:29:23;;;;;;;;;;;;;;;13.73;49.55;94849.88;5073931;28;1348;-57
2023/04/11 07:31:50;;;;;;;;;;;;;;;13.59;49.77;94846.19;5075249;28;1905;-56
2023/04/11 07:34:16;;;;;;;;;;;;;;;13.39;49.30;94843.22;5075396;28;988;-57
2023/04/11 07:36:42;;;;;;;;;;;;;;;13.13;50.38;94847.19;5075247;28;1068;-56
2023/04/11 07:39:11;;;;;;;;;;;;;;;13.12;50.52;94842.81;5075052;28;1311;-57
2023/04/11 07:41:37;;;;;;;;;;;;;;;13.16;49.29;94845.97;5085616;28;1630;-57
2023/04/11 07:44:05;;;;;;;;;;;;;;;13.36;50.62;94839.06;5095222;28;1239;-57
2023/04/11 07:46:32;;;;;;;;;;;;;;;13.94;50.34;94838.31;5095397;28;1009;-57
2023/04/11 07:48:58;;;;;;;;;;;;;;;14.28;48.94;94845.72;5084947;28;1143;-57
2023/04/11 07:51:25;;;;;;;;;;;;;;;14.09;49.91;94849.88;5074890;28;1060;-57
2023/04/11 07:53:51;;;;;;;;;;;;;;;14.24;49.78;94839.88;5074954;28;1902;-56
2023/04/11 07:56:17;;;;;;;;;;;;;;;14.67;49.10;94843.66;5073873;28;1000;-56
2023/04/11 07:58:43;;;;;;;;;;;;;;;14.34;48.38;94831.53;5074520;28;1069;-57
2023/04/11 08:01:38;;;;;;;;;;;;;;;14.00;48.83;94834.88;5075002;28;966;-57
2023/04/11 08:04:04;;;;;;;;;;;;;;;14.26;48.79;94823.56;5061788;28;1441;-57
2023/04/11 08:06:31;;;;;;;;;;;;;;;14.37;47.30;94836.50;5074721;28;981;-57
2023/04/11 08:08:57;;;;;;;;;;;;;;;15.22;47.76;94823.97;5073147;28;1130;-57
2023/04/11 08:11:23;;;;;;;;;;;;;;;14.81;46.55;94821.19;5074401;28;1032;-57
2023/04/11 08:13:49;;;;;;;;;;;;;;;14.75;47.99;94827.34;5074678;28;1898;-57
2023/04/11 08:16:15;;;;;;;;;;;;;;;14.60;47.16;94820.19;5074367;28;1185;-57
2023/04/11 08:18:41;;;;;;;;;;;;;;;14.35;48.31;94813.53;5074199;28;1085;-57
2023/04/11 08:21:11;;;;;;;;;;;;;;;14.30;47.10;94818.66;5074357;28;1028;-57
2023/04/11 08:23:38;;;;;;;;;;;;;;;14.06;47.85;94807.25;5074281;28;1092;-57
2023/04/11 08:26:05;;;;;;;;;;;;;;;14.84;45.40;94810.88;5073778;28;1344;-57
2023/04/11 08:28:32;;;;;;;;;;;;;;;14.87;45.48;94801.56;5072959;28;1556;-57
2023/04/11 08:31:01;;;;;;;;;;;;;;;14.60;45.86;94804.03;5074378;28;980;-57
2023/04/11 08:33:27;;;;;;;;;;;;;;;14.47;45.19;94801.22;5073333;28;1902;-57
2023/04/11 08:35:53;;;;;;;;;;;;;;;14.89;43.43;94796.84;5073977;28;1567;-55
2023/04/11 08:38:19;;;;;;;;;;;;;;;14.58;45.77;94791.81;5073907;28;1115;-56
2023/04/11 08:40:45;;;;;;;;;;;;;;;14.64;45.22;94782.97;5076991;28;1628;-57
2023/04/11 08:43:11;;;;;;;;;;;;;;;14.83;45.72;94781.44;5089012;28;1239;-57
2023/04/11 08:45:38;;;;;;;;;;;;;;;14.49;45.86;94774.94;5073950;28;1040;-57
2023/04/11 08:48:05;;;;;;;;;;;;;;;14.06;46.70;94783.06;5074131;28;996;-56
2023/04/11 08:50:32;;;;;;;;;;;;;;;13.86;46.22;94780.16;5073681;28;993;-57
2023/04/11 08:53:01;;;;;;;;;;;;;;;14.38;45.96;94776.34;5073468;28;1910;-58
2023/04/11 08:55:27;;;;;;;;;;;;;;;14.43;45.30;94764.97;5073604;28;1087;-57
2023/04/11 08:57:57;;;;;;;;;;;;;;;14.80;44.71;94765.72;5073871;28;1040;-57
2023/04/11 09:00:25;;;;;;;;;;;;;;;14.58;44.56;94757.69;5073787;28;982;-58
2023/04/11 09:02:54;;;;;;;;;;;;;;;14.23;44.74;94759.44;5073308;28;1041;-56
2023/04/11 09:05:27;;;;;;;;;;;;;;;14.52;45.16;94754.91;5072871;28;1032;-55
2023/04/11 09:07:54;;;;;;;;;;;;;;;14.48;45.51;94741.03;5073009;28;1223;-55
2023/04/11 09:10:20;;;;;;;;;;;;;;;14.34;44.57;94750.00;5073261;28;1044;-55
2023/04/11 09:13:20;;;;;;;;;;;;;;;13.96;46.08;94740.38;5073405;28;1964;-55
2023/04/11 09:16:09;;;;;;;;;;;;;;;14.22;46.88;94739.78;5073397;28;2213;-55
2023/04/11 09:18:54;;;;;;;;;;;;;;;13.96;45.88;94747.59;5073589;28;2007;-56
2023/04/11 09:21:47;;;;;;;;;;;;;;;13.79;46.04;94741.63;5073696;28;2053;-55
2023/04/11 09:24:33;;;;;;;;;;;;;;;13.67;46.71;94741.31;5073592;28;2021;-55
2023/04/11 09:27:23;;;;;;;;;;;;;;;13.53;46.71;94742.19;5073298;28;2093;-56
2023/04/11 09:30:21;;;;;;;;;;;;;;;13.45;46.87;94735.09;5073596;28;1997;-57
2023/04/11 09:33:27;;;;;;;;;;;;;;;13.44;46.79;94741.47;5073339;28;2185;-57
2023/04/11 09:36:19;;;;;;;;;;;;;;;13.46;46.97;94732.19;5073182;28;2080;-56
2023/04/11 09:39:17;;;;;;;;;;;;;;;13.71;46.89;94728.31;5073470;28;2026;-57
2023/04/11 09:42:21;;;;;;;;;;;;;;;13.76;47.05;94728.59;5087105;28;2161;-58
2023/04/11 09:45:17;;;;;;;;;;;;;;;13.64;46.37;94730.97;5093625;28;2117;-57
2023/04/11 09:48:04;;;;;;;;;;;;;;;13.43;46.76;94732.59;5093256;28;2091;-57
2023/04/11 09:50:49;;;;;;;;;;;;;;;14.10;46.75;94719.00;5093603;28;2048;-57
2023/04/11 09:53:36;;;;;;;;;;;;;;;15.13;45.71;94730.91;5093268;28;1999;-57
2023/04/11 09:56:22;;;;;;;;;;;;;;;15.22;43.92;94731.56;5093514;28;2123;-56
2023/04/11 09:59:08;;;;;;;;;;;;;;;14.62;44.26;94729.34;5093237;28;2244;-60
2023/04/11 10:01:55;;;;;;;;;;;;;;;14.30;44.65;94717.28;5093510;28;2247;-59
2023/04/11 10:04:40;;;;;;;;;;;;;;;14.45;45.17;94717.19;5093135;28;2063;-58
2023/04/11 10:07:28;;;;;;;;;;;;;;;14.57;43.91;94718.38;5093390;28;1559;-59
2023/04/11 10:10:15;;;;;;;;;;;;;;;15.48;43.72;94719.22;5093098;28;2252;-58
2023/04/11 10:13:00;;;;;;;;;;;;;;;15.88;42.53;94725.63;5093054;28;2079;-57
2023/04/11 10:16:07;;;;;;;;;;;;;;;15.70;41.44;94714.53;5092104;28;2213;-55
2023/04/11 10:18:52;;;;;;;;;;;;;;;15.69;41.47;94719.13;5093758;28;1856;-56
2023/04/11 10:21:39;;;;;;;;;;;;;;;15.10;42.22;94715.16;5097158;28;2177;-57
2023/04/11 10:24:25;;;;;;;;;;;;;;;15.00;43.21;94690.44;5097016;28;2027;-56
2023/04/11 10:27:10;;;;;;;;;;;;;;;15.63;42.20;94701.03;5096985;28;2008;-57
2023/04/11 10:29:56;;;;;;;;;;;;;;;16.04;41.86;94685.81;5096964;28;2348;-57
2023/04/11 10:33:02;;;;;;;;;;;;;;;15.67;41.75;94685.28;5096473;28;2249;-55
2023/04/11 10:36:02;;;;;;;;;;;;;;;15.92;42.10;94697.22;5096695;28;1521;-56
2023/04/11 10:38:49;;;;;;;;;;;;;;;15.49;41.34;94694.78;5096802;28;2223;-57
2023/04/11 10:41:34;;;;;;;;;;;;;;;15.02;42.60;94694.63;5096337;28;1910;-56
2023/04/11 10:44:20;;;;;;;;;;;;;;;15.52;41.84;94682.81;5096262;28;2120;-57
2023/04/11 10:47:15;;;;;;;;;;;;;;;15.94;40.89;94686.22;5096601;28;2063;-55
2023/04/11 10:50:00;;;;;;;;;;;;;;;16.38;39.24;94682.91;5096351;28;2058;-56
2023/04/11 10:52:46;;;;;;;;;;;;;;;16.85;40.78;94687.47;5096212;28;1915;-56
2023/04/11 10:55:42;;;;;;;;;;;;;;;16.39;39.91;94686.44;5096442;28;2034;-55
2023/04/11 10:58:35;;;;;;;;;;;;;;;15.70;40.76;94692.97;5096123;28;2195;-55
2023/04/11 11:01:22;;;;;;;;;;;;;;;15.06;40.95;94683.44;5096109;28;2030;-55
2023/04/11 11:04:08;;;;;;;;;;;;;;;15.35;41.64;94687.72;5096308;28;2185;-56
2023/04/11 11:06:54;;;;;;;;;;;;;;;15.09;41.61;94677.66;5095220;28;1696;-55
2023/04/11 11:09:39;;;;;;;;;;;;;;;15.41;40.88;94676.94;5096035;28;2340;-55
2023/04/11 11:12:25;;;;;;;;;;;;;;;15.30;41.28;94674.84;5095996;28;2154;-54
2023/04/11 11:15:13;;;;;;;;;;;;;;;15.31;41.84;94673.81;5095767;28;1656;-56
2023/04/11 11:17:59;;;;;;;;;;;;;;;15.42;40.11;94670.53;5095767;28;2209;-55
2023/04/11 11:20:45;;;;;;;;;;;;;;;15.52;40.67;94670.16;5096074;28;2015;-54
2023/04/11 11:23:31;;;;;;;;;;;;;;;15.96;39.58;94663.41;5095592;28;2180;-55
2023/04/11 11:26:16;;;;;;;;;;;;;;;16.27;39.57;94663.81;5094834;28;2047;-56
2023/04/11 11:29:02;;;;;;;;;;;;;;;15.97;39.12;94664.22;5095936;28;1517;-54
2023/04/11 11:31:48;;;;;;;;;;;;;;;15.65;39.47;94658.56;5095700;28;2059;-55
2023/04/11 11:34:34;;;;;;;;;;;;;;;15.91;40.74;94660.50;5095626;28;1576;-55
2023/04/11 11:37:20;;;;;;;;;;;;;;;15.97;39.52;94666.94;5095633;28;2160;-55
2023/04/11 11:40:08;;;;;;;;;;;;;;;15.53;38.99;94666.41;5095612;28;1540;-55
2023/04/11 11:42:53;;;;;;;;;;;;;;;15.17;39.44;94650.56;5075102;28;2254;-56
2023/04/11 11:45:39;;;;;;;;;;;;;;;14.93;40.39;94654.59;5074932;28;2066;-56
2023/04/11 11:48:24;;;;;;;;;;;;;;;14.57;40.14;94651.13;5074969;28;2192;-55
2023/04/11 11:51:10;;;;;;;;;;;;;;;14.58;40.02;94643.88;5074866;28;2331;-56
2023/04/11 11:54:07;;;;;;;;;;;;;;;14.91;39.91;94644.03;5074841;28;2010;-55
2023/04/11 11:56:52;;;;;;;;;;;;;;;15.48;41.29;94635.72;5075081;28;1711;-56
2023/04/11 11:59:38;;;;;;;;;;;;;;;15.66;39.37;94633.28;5074667;28;2069;-55
2023/04/11 12:02:24;;;;;;;;;;;;;;;15.76;39.72;94630.19;5074787;28;2034;-55
2023/04/11 12:05:10;;;;;;;;;;;;;;;15.95;38.27;94639.34;5074493;28;2085;-56
2023/04/11 12:07:58;;;;;;;;;;;;;;;16.08;38.81;94625.88;5074829;28;2024;-56
2023/04/11 12:10:47;;;;;;;;;;;;;;;15.97;39.12;94631.88;5074812;28;2042;-56
2023/04/11 12:13:34;;;;;;;;;;;;;;;15.78;38.55;94630.81;5074455;28;2238;-55
2023/04/11 12:16:20;;;;;;;;;;;;;;;15.38;39.76;94622.66;5074481;28;1871;-56
2023/04/11 12:19:07;;;;;;;;;;;;;;;14.98;40.01;94619.84;5074506;28;2254;-55
2023/04/11 12:21:52;;;;;;;;;;;;;;;15.14;40.52;94610.56;5074521;28;2056;-56
2023/04/11 12:24:38;;;;;;;;;;;;;;;15.23;40.04;94609.34;5074425;28;2076;-55
2023/04/11 12:27:23;;;;;;;;;;;;;;;15.36;40.77;94606.69;5074035;28;2048;-56
2023/04/11 12:30:10;;;;;;;;;;;;;;;15.59;39.69;94602.78;5074405;28;1990;-55
2023/04/11 12:32:55;;;;;;;;;;;;;;;15.71;39.84;94606.56;5073885;28;2109;-55
2023/04/11 12:35:40;;;;;;;;;;;;;;;15.88;39.66;94601.63;5074326;28;1886;-55
2023/04/11 12:38:26;;;;;;;;;;;;;;;15.78;39.34;94601.19;5073863;28;2009;-55
2023/04/11 12:41:11;;;;;;;;;;;;;;;15.74;40.01;94592.66;5080574;28;2015;-55
2023/04/11 12:44:00;;;;;;;;;;;;;;;15.83;39.51;94587.91;5093934;28;1892;-55
2023/04/11 12:46:46;;;;;;;;;;;;;;;15.74;39.23;94587.28;5094316;28;2157;-55
2023/04/11 12:49:31;;;;;;;;;;;;;;;15.86;38.67;94586.66;5094238;28;2165;-55
2023/04/11 12:52:16;;;;;;;;;;;;;;;15.74;38.57;94589.97;5092949;28;1906;-55
2023/04/11 12:55:02;;;;;;;;;;;;;;;15.61;39.40;94573.78;5094288;28;2010;-56
2023/04/11 12:57:48;;;;;;;;;;;;;;;15.39;38.90;94570.44;5094265;28;2017;-55
2023/04/11 13:00:33;;;;;;;;;;;;;;;15.06;39.12;94570.38;5094128;28;2206;-55
2023/04/11 13:03:19;;;;;;;;;;;;;;;14.93;38.97;94571.16;5094045;28;2199;-55
2023/04/11 13:06:05;;;;;;;;;;;;;;;14.75;40.58;94563.66;5094123;28;2170;-56
2023/04/11 13:08:51;;;;;;;;;;;;;;;14.63;40.15;94566.09;5094146;28;2045;-55
2023/04/11 13:11:36;;;;;;;;;;;;;;;15.06;39.91;94563.13;5094035;28;2059;-55
2023/04/11 13:14:22;;;;;;;;;;;;;;;14.90;38.42;94567.00;5093891;28;2236;-56
2023/04/11 13:17:08;;;;;;;;;;;;;;;14.70;39.28;94568.78;5093945;28;2215;-55
2023/04/11 13:19:53;;;;;;;;;;;;;;;14.49;39.97;94557.06;5093846;28;2022;-55
2023/04/11 13:22:40;;;;;;;;;;;;;;;14.53;40.23;94550.28;5092531;28;2770;-55
2023/04/11 13:25:25;;;;;;;;;;;;;;;14.45;40.52;94537.84;5093669;28;1663;-56
2023/04/11 13:28:11;;;;;;;;;;;;;;;14.30;40.01;94552.44;5093504;28;2192;-56
2023/04/11 13:30:57;;;;;;;;;;;;;;;14.15;40.47;94539.97;5093656;28;2186;-56
2023/04/11 13:33:44;;;;;;;;;;;;;;;14.08;40.37;94541.78;5093376;28;2229;-56
2023/04/11 13:36:31;;;;;;;;;;;;;;;14.03;40.23;94534.28;5093326;28;2211;-56
2023/04/11 13:39:16;;;;;;;;;;;;;;;13.99;40.66;94532.22;5093562;28;2190;-56
2023/04/11 13:42:01;;;;;;;;;;;;;;;13.92;40.51;94529.47;5093464;28;2094;-57
2023/04/11 13:44:47;;;;;;;;;;;;;;;13.88;40.97;94528.19;5093321;28;2870;-56